createdAt,value
2023-09-06T00:01:19.421Z,100.00
2023-09-06T00:03:46.129Z,100.00
2023-09-06T00:06:12.744Z,100.00
2023-09-06T00:08:39.349Z,100.00
2023-09-06T00:11:06.691Z,100.00
2023-09-06T00:13:34.571Z,100.00
2023-09-06T00:16:02.169Z,100.00
2023-09-06T00:18:28.992Z,100.00
2023-09-06T00:20:58.544Z,100.00
2023-09-06T00:23:26.388Z,100.00
2023-09-06T00:25:56.736Z,100.00
2023-09-06T00:28:25.741Z,100.00
2023-09-06T00:30:58.467Z,100.00
2023-09-06T00:33:31.729Z,100.00
2023-09-06T00:35:59.150Z,100.00
2023-09-06T00:38:26.321Z,100.00
2023-09-06T00:40:54.895Z,100.00
2023-09-06T00:43:21.474Z,100.00
2023-09-06T00:45:52.210Z,100.00
2023-09-06T00:48:22.824Z,100.00
2023-09-06T00:50:54.097Z,100.00
2023-09-06T00:53:23.000Z,100.00
2023-09-06T00:55:52.423Z,100.00
2023-09-06T00:58:20.450Z,100.00
2023-09-06T01:00:48.167Z,100.00
2023-09-06T01:03:16.344Z,100.00
2023-09-06T01:05:49.225Z,100.00
2023-09-06T01:08:29.773Z,100.00
2023-09-06T01:11:22.733Z,100.00
2023-09-06T01:13:59.841Z,100.00
2023-09-06T01:16:33.831Z,100.00
2023-09-06T01:19:00.954Z,100.00
2023-09-06T01:21:36.158Z,100.00
2023-09-06T01:24:04.590Z,100.00
2023-09-06T01:26:33.297Z,100.00
2023-09-06T01:29:00.046Z,100.00
2023-09-06T01:31:28.796Z,100.00
2023-09-06T01:33:55.744Z,100.00
2023-09-06T01:36:22.416Z,100.00
2023-09-06T01:38:49.023Z,100.00
2023-09-06T01:41:15.542Z,100.00
2023-09-06T01:43:42.117Z,100.00
2023-09-06T01:46:08.734Z,100.00
2023-09-06T01:48:35.337Z,100.00
2023-09-06T01:51:01.927Z,100.00
2023-09-06T01:53:30.289Z,100.00
2023-09-06T01:55:56.869Z,100.00
2023-09-06T01:58:23.398Z,100.00
2023-09-06T02:00:49.964Z,100.00
2023-09-06T02:03:18.069Z,100.00
2023-09-06T02:05:44.895Z,100.00
2023-09-06T02:08:12.426Z,100.00
2023-09-06T02:10:39.102Z,100.00
2023-09-06T02:13:05.757Z,100.00
2023-09-06T02:15:32.279Z,100.00
2023-09-06T02:17:58.837Z,100.00
2023-09-06T02:20:26.758Z,100.00
2023-09-06T02:22:57.554Z,100.00
2023-09-06T02:25:31.933Z,100.00
2023-09-06T02:27:59.273Z,100.00
2023-09-06T02:30:26.256Z,100.00
2023-09-06T02:32:55.704Z,100.00
2023-09-06T02:35:22.266Z,100.00
2023-09-06T02:37:48.923Z,100.00
2023-09-06T02:40:18.756Z,100.00
2023-09-06T02:42:45.491Z,100.00
2023-09-06T02:45:13.043Z,100.00
2023-09-06T02:47:51.730Z,100.00
2023-09-06T02:50:23.916Z,100.00
2023-09-06T02:52:54.764Z,100.00
2023-09-06T02:55:22.241Z,100.00
2023-09-06T02:57:50.626Z,100.00
2023-09-06T03:00:21.003Z,100.00
2023-09-06T03:02:48.427Z,100.00
2023-09-06T03:05:18.870Z,100.00
2023-09-06T03:07:49.327Z,100.00
2023-09-06T03:10:21.149Z,100.00
2023-09-06T03:12:49.315Z,100.00
2023-09-06T03:15:16.720Z,100.00
2023-09-06T03:17:48.050Z,100.00
2023-09-06T03:20:34.214Z,100.00
2023-09-06T03:23:18.484Z,100.00
2023-09-06T03:25:49.604Z,100.00
2023-09-06T03:28:19.921Z,100.00
2023-09-06T03:30:46.973Z,100.00
2023-09-06T03:33:13.638Z,100.00
2023-09-06T03:35:40.281Z,100.00
2023-09-06T03:38:09.949Z,100.00
2023-09-06T03:40:37.280Z,100.00
2023-09-06T03:43:18.396Z,100.00
2023-09-06T03:45:53.014Z,100.00
2023-09-06T03:48:22.433Z,100.00
2023-09-06T03:50:53.256Z,100.00
2023-09-06T03:53:19.904Z,100.00
2023-09-06T03:55:50.797Z,100.00
2023-09-06T03:58:17.364Z,100.00
2023-09-06T04:00:45.845Z,100.00
2023-09-06T04:03:16.242Z,100.00
2023-09-06T04:05:45.218Z,100.00
2023-09-06T04:08:12.617Z,100.00
2023-09-06T04:10:40.370Z,100.00
2023-09-06T04:13:08.754Z,100.00
2023-09-06T04:15:36.343Z,100.00
2023-09-06T04:18:07.696Z,100.00
2023-09-06T04:20:39.846Z,100.00
2023-09-06T04:23:08.955Z,100.00
2023-09-06T04:25:44.470Z,100.00
2023-09-06T04:28:12.758Z,100.00
2023-09-06T04:30:42.050Z,100.00
2023-09-06T04:33:13.874Z,100.00
2023-09-06T04:35:48.438Z,100.00
2023-09-06T04:38:21.781Z,100.00
2023-09-06T04:40:48.605Z,100.00
2023-09-06T04:43:19.291Z,100.00
2023-09-06T04:45:48.389Z,100.00
2023-09-06T04:48:25.152Z,100.00
2023-09-06T04:50:51.881Z,100.00
2023-09-06T04:53:19.480Z,100.00
2023-09-06T04:55:50.298Z,100.00
2023-09-06T04:58:17.086Z,100.00
2023-09-06T05:00:46.055Z,100.00
2023-09-06T05:03:13.066Z,100.00
2023-09-06T05:05:41.696Z,100.00
2023-09-06T05:08:09.472Z,100.00
2023-09-06T05:10:36.856Z,100.00
2023-09-06T05:13:04.122Z,100.00
2023-09-06T05:15:30.696Z,100.00
2023-09-06T05:17:57.251Z,100.00
2023-09-06T05:20:42.239Z,100.00
2023-09-06T05:23:13.639Z,100.00
2023-09-06T05:25:41.850Z,100.00
2023-09-06T05:28:11.175Z,100.00
2023-09-06T05:30:42.093Z,100.00
2023-09-06T05:33:10.144Z,100.00
2023-09-06T05:35:37.453Z,100.00
2023-09-06T05:38:07.334Z,100.00
2023-09-06T05:40:35.746Z,100.00
2023-09-06T05:43:02.728Z,100.00
2023-09-06T05:45:29.296Z,100.00
2023-09-06T05:47:55.939Z,100.00
2023-09-06T05:50:22.615Z,100.00
2023-09-06T05:52:49.326Z,100.00
2023-09-06T05:55:16.107Z,100.00
2023-09-06T05:57:43.444Z,100.00
2023-09-06T06:00:14.368Z,100.00
2023-09-06T06:02:41.544Z,100.00
2023-09-06T06:05:08.658Z,100.00
2023-09-06T06:07:35.140Z,100.00
2023-09-06T06:10:01.789Z,100.00
2023-09-06T06:12:28.404Z,100.00
2023-09-06T06:14:55.030Z,100.00
2023-09-06T06:17:21.878Z,100.00
2023-09-06T06:19:49.467Z,100.00
2023-09-06T06:22:16.074Z,100.00
2023-09-06T06:24:46.238Z,100.00
2023-09-06T06:27:13.332Z,100.00
2023-09-06T06:29:40.315Z,100.00
2023-09-06T06:32:08.308Z,100.00
2023-09-06T06:34:40.064Z,100.00
2023-09-06T06:37:07.239Z,100.00
2023-09-06T06:39:34.061Z,100.00
2023-09-06T06:42:00.749Z,100.00
2023-09-06T06:44:27.236Z,100.00
2023-09-06T06:46:53.775Z,100.00
2023-09-06T06:49:20.993Z,100.00
2023-09-06T06:51:47.619Z,100.00
2023-09-06T06:54:16.777Z,100.00
2023-09-06T06:56:43.340Z,100.00
2023-09-06T06:59:10.286Z,100.00
2023-09-06T07:01:37.299Z,100.00
2023-09-06T07:04:07.504Z,100.00
2023-09-06T07:06:34.335Z,100.00
2023-09-06T07:09:04.604Z,100.00
2023-09-06T07:11:32.507Z,100.00
2023-09-06T07:13:59.247Z,100.00
2023-09-06T07:16:27.638Z,100.00
2023-09-06T07:18:56.066Z,100.00
2023-09-06T07:21:22.569Z,100.00
2023-09-06T07:23:49.225Z,100.00
2023-09-06T07:26:16.163Z,100.00
2023-09-06T07:28:45.171Z,100.00
2023-09-06T07:31:12.952Z,100.00
2023-09-06T07:33:42.597Z,100.00
2023-09-06T07:36:09.192Z,100.00
2023-09-06T07:38:35.917Z,100.00
2023-09-06T07:41:07.716Z,100.00
2023-09-06T07:43:36.342Z,100.00
2023-09-06T07:46:04.434Z,100.00
2023-09-06T07:48:32.525Z,100.00
2023-09-06T07:51:00.522Z,100.00
2023-09-06T07:53:27.951Z,100.00
2023-09-06T07:55:56.400Z,100.00
2023-09-06T07:58:23.765Z,100.00
2023-09-06T08:00:59.342Z,100.00
2023-09-06T08:03:34.756Z,100.00
2023-09-06T08:06:01.600Z,100.00
2023-09-06T08:08:28.451Z,100.00
2023-09-06T08:10:55.145Z,100.00
2023-09-06T08:13:21.654Z,100.00
2023-09-06T08:15:48.312Z,100.00
2023-09-06T08:18:14.960Z,100.00
2023-09-06T08:20:41.657Z,99.79
2023-09-06T08:23:08.243Z,98.96
2023-09-06T08:25:35.112Z,99.84
2023-09-06T08:28:01.664Z,100.00
2023-09-06T08:30:28.680Z,98.64
2023-09-06T08:32:56.430Z,97.99
2023-09-06T08:35:24.448Z,97.86
2023-09-06T08:37:51.676Z,97.85
2023-09-06T08:40:19.857Z,96.26
2023-09-06T08:42:46.534Z,96.00
2023-09-06T08:45:13.218Z,95.80
2023-09-06T08:47:40.970Z,95.77
2023-09-06T08:50:08.365Z,96.44
2023-09-06T08:52:35.910Z,95.14
2023-09-06T08:55:02.465Z,95.57
2023-09-06T08:57:29.112Z,94.54
2023-09-06T08:59:55.819Z,92.60
2023-09-06T09:02:22.339Z,92.84
2023-09-06T09:04:50.403Z,92.29
2023-09-06T09:07:19.659Z,91.45
2023-09-06T09:10:08.516Z,91.93
2023-09-06T09:12:38.617Z,91.44
2023-09-06T09:15:21.250Z,89.94
2023-09-06T09:17:59.927Z,89.08
2023-09-06T09:20:28.213Z,89.84
2023-09-06T09:23:02.364Z,89.06
2023-09-06T09:25:29.214Z,89.06
2023-09-06T09:27:58.603Z,89.47
2023-09-06T09:30:27.863Z,89.65
2023-09-06T09:32:59.972Z,89.57
2023-09-06T09:35:27.292Z,87.22
2023-09-06T09:37:53.798Z,86.98
2023-09-06T09:40:22.291Z,86.50
2023-09-06T09:42:56.735Z,86.98
2023-09-06T09:45:25.993Z,86.38
2023-09-06T09:47:54.464Z,85.96
2023-09-06T09:50:34.382Z,86.17
2023-09-06T09:53:15.007Z,85.77
2023-09-06T09:55:48.591Z,85.58
2023-09-06T09:58:16.996Z,86.42
2023-09-06T10:00:44.082Z,85.13
2023-09-06T10:03:11.721Z,83.55
2023-09-06T10:05:39.057Z,84.82
2023-09-06T10:08:08.943Z,83.45
2023-09-06T10:10:38.405Z,83.62
2023-09-06T10:13:08.990Z,82.57
2023-09-06T10:15:36.776Z,81.87
2023-09-06T10:18:05.186Z,82.89
2023-09-06T10:20:33.483Z,79.79
2023-09-06T10:23:01.464Z,80.60
2023-09-06T10:25:28.095Z,78.79
2023-09-06T10:27:56.427Z,78.03
2023-09-06T10:30:49.691Z,77.42
2023-09-06T10:33:35.119Z,78.17
2023-09-06T10:36:08.625Z,77.82
2023-09-06T10:38:59.305Z,76.04
2023-09-06T10:41:28.734Z,75.35
2023-09-06T10:44:02.293Z,74.24
2023-09-06T10:46:29.892Z,76.76
2023-09-06T10:49:17.634Z,75.44
2023-09-06T10:52:05.715Z,75.81
2023-09-06T10:54:41.461Z,74.91
2023-09-06T10:57:09.789Z,73.93
2023-09-06T10:59:40.049Z,74.16
2023-09-06T11:02:11.036Z,76.57
2023-09-06T11:04:37.964Z,73.47
2023-09-06T11:07:10.871Z,71.70
2023-09-06T11:09:51.825Z,72.96
2023-09-06T11:12:18.811Z,67.26
2023-09-06T11:14:49.041Z,68.47
2023-09-06T11:17:25.001Z,66.92
2023-09-06T11:19:51.623Z,69.11
2023-09-06T11:22:18.403Z,68.18
2023-09-06T11:24:45.053Z,70.52
2023-09-06T11:27:18.689Z,71.71
2023-09-06T11:29:45.139Z,69.85
2023-09-06T11:32:16.960Z,67.99
2023-09-06T11:34:46.792Z,64.82
2023-09-06T11:37:16.770Z,64.47
2023-09-06T11:39:45.340Z,66.34
2023-09-06T11:42:15.780Z,62.83
2023-09-06T11:44:54.447Z,63.52
2023-09-06T11:47:24.670Z,65.18
2023-09-06T11:49:51.569Z,62.09
2023-09-06T11:52:20.336Z,64.26
2023-09-06T11:54:51.226Z,60.69
2023-09-06T11:57:22.500Z,61.76
2023-09-06T11:59:53.816Z,60.30
2023-09-06T12:02:22.278Z,59.51
2023-09-06T12:04:54.082Z,60.85
2023-09-06T12:07:24.577Z,57.70
2023-09-06T12:09:52.028Z,58.67
2023-09-06T12:12:18.614Z,56.60
2023-09-06T12:14:45.586Z,56.22
2023-09-06T12:17:12.627Z,54.79
2023-09-06T12:19:39.327Z,54.13
2023-09-06T12:22:06.548Z,52.98
2023-09-06T12:24:35.018Z,54.52
2023-09-06T12:27:02.081Z,51.27
2023-09-06T12:29:28.633Z,51.29
2023-09-06T12:31:55.148Z,50.34
2023-09-06T12:34:22.794Z,48.85
2023-09-06T12:36:49.374Z,50.23
2023-09-06T12:39:15.833Z,49.85
2023-09-06T12:41:43.474Z,48.64
2023-09-06T12:44:10.051Z,50.03
2023-09-06T12:46:36.614Z,51.74
2023-09-06T12:49:05.448Z,50.13
2023-09-06T12:51:31.965Z,48.25
2023-09-06T12:53:58.590Z,47.86
2023-09-06T12:56:25.071Z,47.20
2023-09-06T12:58:51.579Z,47.26
2023-09-06T13:01:18.181Z,46.72
2023-09-06T13:03:47.738Z,44.99
2023-09-06T13:06:14.367Z,45.39
2023-09-06T13:08:42.834Z,42.76
2023-09-06T13:11:09.568Z,45.45
2023-09-06T13:13:36.884Z,41.99
2023-09-06T13:16:07.319Z,42.53
2023-09-06T13:18:34.356Z,43.37
2023-09-06T13:21:01.420Z,41.73
2023-09-06T13:23:27.923Z,44.45
2023-09-06T13:25:54.432Z,43.14
2023-09-06T13:28:20.921Z,43.02
2023-09-06T13:30:47.447Z,41.90
2023-09-06T13:33:14.049Z,42.35
2023-09-06T13:35:40.598Z,41.36
2023-09-06T13:38:07.204Z,40.61
2023-09-06T13:40:33.770Z,40.05
2023-09-06T13:43:00.498Z,39.52
2023-09-06T13:45:28.688Z,40.06
2023-09-06T13:47:57.077Z,39.95
2023-09-06T13:50:23.952Z,39.42
2023-09-06T13:52:50.620Z,40.51
2023-09-06T13:55:17.343Z,39.21
2023-09-06T13:57:43.897Z,40.33
2023-09-06T14:00:12.689Z,39.74
2023-09-06T14:02:39.466Z,38.81
2023-09-06T14:05:06.480Z,40.32
2023-09-06T14:07:33.149Z,38.20
2023-09-06T14:09:59.821Z,38.05
2023-09-06T14:12:27.941Z,39.32
2023-09-06T14:14:57.646Z,39.08
2023-09-06T14:17:24.269Z,38.29
2023-09-06T14:19:51.321Z,38.71
2023-09-06T14:22:17.792Z,39.55
2023-09-06T14:24:44.401Z,39.17
2023-09-06T14:27:10.916Z,38.32
2023-09-06T14:29:37.394Z,39.01
2023-09-06T14:32:04.234Z,38.91
2023-09-06T14:34:30.789Z,39.33
2023-09-06T14:36:57.383Z,38.38
2023-09-06T14:39:24.512Z,39.46
2023-09-06T14:41:51.468Z,39.89
2023-09-06T14:44:18.696Z,40.19
2023-09-06T14:46:45.525Z,39.94
2023-09-06T14:49:13.408Z,39.18
2023-09-06T14:51:40.246Z,39.77
2023-09-06T14:54:07.716Z,40.00
2023-09-06T14:56:37.524Z,40.11
2023-09-06T14:59:05.005Z,40.33
2023-09-06T15:01:31.642Z,39.75
2023-09-06T15:03:58.610Z,38.30
2023-09-06T15:06:25.227Z,39.17
2023-09-06T15:08:57.330Z,37.60
2023-09-06T15:11:24.199Z,39.15
2023-09-06T15:13:50.659Z,38.62
2023-09-06T15:16:17.268Z,40.11
2023-09-06T15:18:46.006Z,39.80
2023-09-06T15:21:12.650Z,40.41
2023-09-06T15:23:39.176Z,40.89
2023-09-06T15:26:07.402Z,41.52
2023-09-06T15:28:33.997Z,39.61
2023-09-06T15:31:00.766Z,40.57
2023-09-06T15:33:27.461Z,40.92
2023-09-06T15:35:55.730Z,41.91
2023-09-06T15:38:22.586Z,40.70
2023-09-06T15:40:49.854Z,41.61
2023-09-06T15:43:16.421Z,41.17
2023-09-06T15:45:43.354Z,41.90
2023-09-06T15:48:10.019Z,42.57
2023-09-06T15:50:36.787Z,42.89
2023-09-06T15:53:03.553Z,42.42
2023-09-06T15:55:30.149Z,44.05
2023-09-06T15:57:57.931Z,41.66
2023-09-06T16:00:32.539Z,43.31
2023-09-06T16:03:00.854Z,42.09
2023-09-06T16:05:27.865Z,42.91
2023-09-06T16:07:57.494Z,42.86
2023-09-06T16:10:27.809Z,43.87
2023-09-06T16:12:54.597Z,44.52
2023-09-06T16:15:23.676Z,44.58
2023-09-06T16:17:51.155Z,43.71
2023-09-06T16:20:17.823Z,44.91
2023-09-06T16:22:44.394Z,44.62
2023-09-06T16:25:11.719Z,45.53
2023-09-06T16:27:38.390Z,45.68
2023-09-06T16:30:07.255Z,46.47
2023-09-06T16:32:34.214Z,46.84
2023-09-06T16:35:08.706Z,47.63
2023-09-06T16:37:39.372Z,48.70
2023-09-06T16:40:11.383Z,49.05
2023-09-06T16:42:38.438Z,49.44
2023-09-06T16:45:07.560Z,49.76
2023-09-06T16:47:34.536Z,49.59
2023-09-06T16:50:01.886Z,50.77
2023-09-06T16:52:28.514Z,50.55
2023-09-06T16:54:56.881Z,52.34
2023-09-06T16:57:25.578Z,51.77
2023-09-06T16:59:52.147Z,53.05
2023-09-06T17:02:21.135Z,52.40
2023-09-06T17:04:47.994Z,51.86
2023-09-06T17:07:14.812Z,52.43
2023-09-06T17:09:41.282Z,53.53
2023-09-06T17:12:08.157Z,53.20
2023-09-06T17:14:34.668Z,54.97
2023-09-06T17:17:01.271Z,55.57
2023-09-06T17:19:27.868Z,56.60
2023-09-06T17:21:54.383Z,59.08
2023-09-06T17:24:22.022Z,59.83
2023-09-06T17:26:49.451Z,60.72
2023-09-06T17:29:16.144Z,61.14
2023-09-06T17:31:43.607Z,61.79
2023-09-06T17:34:13.180Z,62.76
2023-09-06T17:36:40.568Z,63.20
2023-09-06T17:39:09.309Z,63.65
2023-09-06T17:41:37.106Z,64.30
2023-09-06T17:44:07.020Z,65.37
2023-09-06T17:46:37.156Z,65.54
2023-09-06T17:49:09.916Z,65.16
2023-09-06T17:51:37.733Z,66.56
2023-09-06T17:54:04.550Z,66.72
2023-09-06T17:56:31.630Z,66.85
2023-09-06T17:58:58.732Z,64.31
2023-09-06T18:01:25.696Z,65.73
2023-09-06T18:03:53.241Z,66.80
2023-09-06T18:06:25.563Z,67.16
2023-09-06T18:08:55.416Z,65.04
2023-09-06T18:11:23.006Z,66.08
2023-09-06T18:13:49.567Z,65.04
2023-09-06T18:16:17.791Z,67.08
2023-09-06T18:18:45.154Z,68.40
2023-09-06T18:21:15.044Z,69.30
2023-09-06T18:23:44.165Z,69.74
2023-09-06T18:26:11.615Z,70.24
2023-09-06T18:28:38.337Z,70.47
2023-09-06T18:31:05.299Z,70.44
2023-09-06T18:33:31.901Z,71.10
2023-09-06T18:35:58.846Z,71.34
2023-09-06T18:38:27.856Z,71.64
2023-09-06T18:40:57.043Z,71.96
2023-09-06T18:43:23.947Z,71.54
2023-09-06T18:45:51.835Z,72.64
2023-09-06T18:48:22.034Z,72.70
2023-09-06T18:50:50.692Z,73.07
2023-09-06T18:53:17.539Z,73.39
2023-09-06T18:55:47.505Z,73.65
2023-09-06T18:58:15.509Z,74.26
2023-09-06T19:00:42.754Z,73.93
2023-09-06T19:03:13.878Z,74.43
2023-09-06T19:05:42.479Z,75.06
2023-09-06T19:08:16.287Z,75.49
2023-09-06T19:10:52.389Z,75.23
2023-09-06T19:13:19.455Z,75.88
2023-09-06T19:15:48.799Z,76.15
2023-09-06T19:18:17.120Z,76.21
2023-09-06T19:20:43.727Z,76.45
2023-09-06T19:23:18.198Z,76.59
2023-09-06T19:25:52.681Z,76.47
2023-09-06T19:28:20.186Z,76.72
2023-09-06T19:30:49.391Z,76.75
2023-09-06T19:33:16.129Z,77.93
2023-09-06T19:35:44.301Z,77.54
2023-09-06T19:38:10.966Z,77.89
2023-09-06T19:40:40.461Z,78.22
2023-09-06T19:43:07.050Z,78.58
2023-09-06T19:45:33.615Z,79.40
2023-09-06T19:48:00.304Z,79.13
2023-09-06T19:50:28.543Z,80.12
2023-09-06T19:52:57.494Z,80.60
2023-09-06T19:55:24.070Z,80.71
2023-09-06T19:57:50.642Z,80.88
2023-09-06T20:00:17.309Z,81.02
2023-09-06T20:02:44.152Z,81.17
2023-09-06T20:05:11.292Z,81.85
2023-09-06T20:07:38.459Z,81.74
2023-09-06T20:10:05.556Z,81.73
2023-09-06T20:12:32.076Z,81.55
2023-09-06T20:14:58.652Z,81.96
2023-09-06T20:17:25.283Z,82.06
2023-09-06T20:19:52.509Z,82.03
2023-09-06T20:22:19.124Z,82.56
2023-09-06T20:24:45.651Z,82.78
2023-09-06T20:27:12.262Z,82.69
2023-09-06T20:29:40.122Z,83.07
2023-09-06T20:32:07.572Z,83.42
2023-09-06T20:34:34.634Z,83.71
2023-09-06T20:37:01.084Z,83.62
2023-09-06T20:39:27.543Z,83.73
2023-09-06T20:41:54.127Z,84.24
2023-09-06T20:44:21.238Z,84.45
2023-09-06T20:46:47.802Z,84.41
2023-09-06T20:49:17.496Z,84.79
2023-09-06T20:51:45.864Z,85.09
2023-09-06T20:54:12.553Z,84.93
2023-09-06T20:56:40.130Z,85.21
2023-09-06T20:59:06.726Z,85.63
2023-09-06T21:01:33.339Z,85.63
2023-09-06T21:03:59.971Z,85.62
2023-09-06T21:06:26.583Z,85.73
2023-09-06T21:08:54.044Z,85.82
2023-09-06T21:11:20.777Z,86.18
2023-09-06T21:13:47.298Z,86.57
2023-09-06T21:16:13.888Z,86.63
2023-09-06T21:18:40.617Z,87.08
2023-09-06T21:21:07.244Z,87.08
2023-09-06T21:23:35.527Z,87.46
2023-09-06T21:26:05.402Z,87.92
2023-09-06T21:28:32.255Z,87.75
2023-09-06T21:31:02.722Z,88.18
2023-09-06T21:33:29.470Z,88.11
2023-09-06T21:35:55.939Z,88.20
2023-09-06T21:38:22.406Z,88.40
2023-09-06T21:40:48.918Z,88.67
2023-09-06T21:43:19.248Z,88.75
2023-09-06T21:45:47.451Z,88.88
2023-09-06T21:48:14.383Z,89.05
2023-09-06T21:50:42.548Z,89.36
2023-09-06T21:53:10.103Z,89.13
2023-09-06T21:55:37.562Z,89.47
2023-09-06T21:58:10.576Z,89.69
2023-09-06T22:00:38.710Z,90.08
2023-09-06T22:03:05.500Z,91.32
2023-09-06T22:05:32.186Z,91.38
2023-09-06T22:07:58.868Z,91.24
2023-09-06T22:10:26.232Z,91.46
2023-09-06T22:12:52.884Z,91.44
2023-09-06T22:15:19.521Z,91.66
2023-09-06T22:17:46.123Z,91.96
2023-09-06T22:20:12.762Z,91.53
2023-09-06T22:22:39.366Z,91.18
2023-09-06T22:25:07.321Z,91.44
2023-09-06T22:27:34.588Z,91.55
2023-09-06T22:30:01.499Z,91.75
2023-09-06T22:32:28.098Z,92.27
2023-09-06T22:34:55.200Z,92.46
2023-09-06T22:37:21.804Z,93.27
2023-09-06T22:39:48.445Z,93.47
2023-09-06T22:42:15.099Z,93.26
2023-09-06T22:44:41.822Z,94.10
2023-09-06T22:47:09.547Z,94.36
2023-09-06T22:49:38.345Z,94.80
2023-09-06T22:52:07.302Z,94.58
2023-09-06T22:54:36.830Z,94.18
2023-09-06T22:57:04.526Z,94.15
2023-09-06T22:59:31.675Z,94.50
2023-09-06T23:01:58.793Z,94.95
2023-09-06T23:04:25.755Z,95.23
2023-09-06T23:06:52.947Z,95.65
2023-09-06T23:09:20.320Z,95.63
2023-09-06T23:11:51.291Z,95.58
2023-09-06T23:14:19.518Z,95.80
2023-09-06T23:16:49.959Z,95.67
2023-09-06T23:19:21.980Z,95.70
2023-09-06T23:21:52.776Z,95.38
2023-09-06T23:24:20.078Z,96.36
2023-09-06T23:26:47.634Z,96.56
2023-09-06T23:29:17.087Z,96.96
2023-09-06T23:31:54.169Z,97.06
2023-09-06T23:34:25.566Z,96.82
2023-09-06T23:36:52.917Z,96.60
2023-09-06T23:39:23.257Z,97.34
2023-09-06T23:41:57.844Z,97.72
2023-09-06T23:44:25.013Z,97.21
2023-09-06T23:46:51.870Z,97.17
2023-09-06T23:49:21.152Z,96.89
2023-09-06T23:51:48.262Z,97.39
2023-09-06T23:54:15.253Z,98.11
2023-09-06T23:56:41.973Z,98.98
2023-09-06T23:59:08.683Z,98.92
